Time;durP1;ratioP1;P1;durP2;ratioP2;P2;SDS_P1;SDS_P2;PMS_P1;PMS_P2;Temp;Humidity;BMP_temperature;BMP_pressure;BME280_temperature;BME280_humidity;BME280_pressure;Samples;Min_cycle;Max_cycle;Signal;HPM_P1;HPM_P2
2023/02/13 00:00:27;;;;;;;5.87;5.27;;;;;;;;;;4986527;28;20465;-74
2023/02/13 00:02:52;;;;;;;5.47;4.97;;;;;;;;;;4987835;28;20432;-75
2023/02/13 00:05:18;;;;;;;5.33;4.83;;;;;;;;;;4984944;28;20209;-75
2023/02/13 00:07:43;;;;;;;5.37;4.87;;;;;;;;;;4984199;28;20807;-75
2023/02/13 00:10:09;;;;;;;6.50;4.80;;;;;;;;;;4986103;28;20214;-75
2023/02/13 00:12:34;;;;;;;4.23;3.83;;;;;;;;;;4986265;28;20190;-75
2023/02/13 00:14:59;;;;;;;4.93;4.37;;;;;;;;;;4990980;28;20232;-74
2023/02/13 00:17:25;;;;;;;6.37;4.70;;;;;;;;;;4990081;28;20174;-75
2023/02/13 00:19:50;;;;;;;5.20;4.70;;;;;;;;;;4991256;28;20679;-74
2023/02/13 00:22:16;;;;;;;4.90;4.50;;;;;;;;;;4990329;28;20540;-75
2023/02/13 00:24:41;;;;;;;4.50;4.10;;;;;;;;;;4983774;28;20189;-75
2023/02/13 00:27:06;;;;;;;6.10;4.63;;;;;;;;;;4983080;28;20652;-75
2023/02/13 00:29:32;;;;;;;5.47;4.97;;;;;;;;;;4983170;28;20391;-75
2023/02/13 00:31:57;;;;;;;5.30;4.80;;;;;;;;;;4983907;28;20193;-75
2023/02/13 00:34:22;;;;;;;5.40;4.90;;;;;;;;;;4984197;28;20185;-74
2023/02/13 00:36:48;;;;;;;5.50;5.00;;;;;;;;;;4987303;28;20252;-75
2023/02/13 00:39:13;;;;;;;5.70;5.20;;;;;;;;;;4984612;28;20325;-75
2023/02/13 00:41:38;;;;;;;5.97;5.33;;;;;;;;;;4982954;28;20197;-75
2023/02/13 00:44:03;;;;;;;7.50;6.37;;;;;;;;;;4988436;28;20177;-75
2023/02/13 00:46:29;;;;;;;5.97;5.37;;;;;;;;;;4984160;28;20174;-75
2023/02/13 00:48:54;;;;;;;7.10;5.20;;;;;;;;;;4983367;28;20201;-74
2023/02/13 00:51:19;;;;;;;5.93;5.33;;;;;;;;;;4988478;28;20297;-75
2023/02/13 00:53:45;;;;;;;7.00;5.60;;;;;;;;;;4990477;28;20182;-75
2023/02/13 00:56:10;;;;;;;6.30;5.70;;;;;;;;;;4988598;28;20178;-75
2023/02/13 00:58:35;;;;;;;8.23;5.73;;;;;;;;;;4989934;28;20197;-74
2023/02/13 01:01:01;;;;;;;6.90;6.30;;;;;;;;;;4989266;28;20185;-75
2023/02/13 01:03:26;;;;;;;6.70;6.07;;;;;;;;;;4987771;28;20453;-75
2023/02/13 01:05:51;;;;;;;6.73;6.03;;;;;;;;;;4990530;28;20643;-75
2023/02/13 01:08:17;;;;;;;6.90;6.13;;;;;;;;;;4988555;28;20200;-75
2023/02/13 01:10:44;;;;;;;6.73;6.10;;;;;;;;;;4987131;28;20773;-75
2023/02/13 01:13:09;;;;;;;7.37;6.67;;;;;;;;;;4982685;28;20792;-74
2023/02/13 01:15:34;;;;;;;7.30;6.60;;;;;;;;;;4988519;28;20444;-75
2023/02/13 01:18:00;;;;;;;6.73;6.13;;;;;;;;;;4989881;28;20193;-75
2023/02/13 01:20:26;;;;;;;9.77;6.93;;;;;;;;;;4989224;28;20220;-75
2023/02/13 01:22:51;;;;;;;9.47;8.00;;;;;;;;;;4989108;28;20268;-75
2023/02/13 01:25:16;;;;;;;7.27;6.50;;;;;;;;;;4984889;28;20984;-74
2023/02/13 01:27:42;;;;;;;8.90;8.00;;;;;;;;;;4980314;28;20192;-75
2023/02/13 01:30:12;;;;;;;9.00;8.10;;;;;;;;;;4984114;28;20229;-74
2023/02/13 01:32:37;;;;;;;9.17;8.27;;;;;;;;;;4997866;28;20182;-75
2023/02/13 01:35:03;;;;;;;9.57;8.60;;;;;;;;;;4986642;28;20420;-75
2023/02/13 01:37:28;;;;;;;8.77;7.87;;;;;;;;;;4982174;28;20189;-75
2023/02/13 01:39:55;;;;;;;9.67;8.67;;;;;;;;;;4977517;28;20206;-75
2023/02/13 01:42:23;;;;;;;9.30;8.17;;;;;;;;;;4987377;28;20273;-74
2023/02/13 01:44:48;;;;;;;10.73;8.23;;;;;;;;;;4985257;28;20437;-74
2023/02/13 01:47:16;;;;;;;8.60;7.80;;;;;;;;;;4984228;28;20437;-74
2023/02/13 01:49:43;;;;;;;9.50;8.60;;;;;;;;;;4997613;28;20264;-75
2023/02/13 01:52:10;;;;;;;9.00;8.13;;;;;;;;;;5002263;28;20507;-75
2023/02/13 01:54:35;;;;;;;9.00;8.10;;;;;;;;;;4980350;28;20922;-74
2023/02/13 01:57:04;;;;;;;10.27;9.20;;;;;;;;;;4981797;28;20437;-75
2023/02/13 01:59:32;;;;;;;9.93;8.93;;;;;;;;;;4986573;28;20210;-75
2023/02/13 02:01:58;;;;;;;10.27;9.07;;;;;;;;;;4987324;28;20437;-75
2023/02/13 02:04:34;;;;;;;10.97;9.70;;;;;;;;;;4983954;28;20527;-75
2023/02/13 02:07:10;;;;;;;11.10;9.90;;;;;;;;;;5001519;28;20424;-75
2023/02/13 02:09:39;;;;;;;10.40;9.40;;;;;;;;;;4980076;28;20452;-75
2023/02/13 02:12:07;;;;;;;10.10;9.10;;;;;;;;;;4985234;28;20444;-74
2023/02/13 02:14:33;;;;;;;10.33;9.23;;;;;;;;;;4985303;28;20436;-75
2023/02/13 02:16:58;;;;;;;11.17;9.93;;;;;;;;;;4985361;28;20436;-74
2023/02/13 02:19:23;;;;;;;11.93;10.33;;;;;;;;;;4982764;28;20245;-75
2023/02/13 02:21:55;;;;;;;12.80;11.13;;;;;;;;;;4983683;28;20480;-74
2023/02/13 02:24:39;;;;;;;11.67;10.47;;;;;;;;;;4983916;28;20213;-74
2023/02/13 02:27:07;;;;;;;12.70;11.03;;;;;;;;;;4982152;28;20923;-75
2023/02/13 02:29:51;;;;;;;11.77;10.57;;;;;;;;;;4982024;28;20551;-74
2023/02/13 02:32:25;;;;;;;12.97;9.80;;;;;;;;;;4991890;28;20794;-75
2023/02/13 02:34:57;;;;;;;12.20;10.80;;;;;;;;;;4983538;28;20490;-75
2023/02/13 02:37:34;;;;;;;13.07;10.80;;;;;;;;;;4981471;28;20445;-74
2023/02/13 02:40:05;;;;;;;11.87;10.67;;;;;;;;;;4976240;28;20889;-74
2023/02/13 02:42:41;;;;;;;13.40;11.90;;;;;;;;;;4978904;28;20519;-75
2023/02/13 02:45:27;;;;;;;12.20;10.97;;;;;;;;;;4983187;28;20430;-75
2023/02/13 02:51:02;;;;;;;13.70;12.23;;;;;;;;;;4983049;28;20448;-74
2023/02/13 02:53:47;;;;;;;15.40;13.20;;;;;;;;;;4991398;28;20436;-74
2023/02/13 02:56:32;;;;;;;14.80;11.50;;;;;;;;;;4983161;28;20449;-75
2023/02/13 03:07:21;;;;;;;14.80;13.27;;;;;;;;;;4983076;28;20487;-75
2023/02/13 03:15:28;;;;;;;12.40;11.10;;;;;;;;;;4983506;28;20556;-75
2023/02/13 03:23:31;;;;;;;13.60;12.13;;;;;;;;;;4984837;28;21008;-75
2023/02/13 03:26:15;;;;;;;15.60;13.43;;;;;;;;;;4986631;28;20508;-75
2023/02/13 03:32:00;;;;;;;15.57;12.63;;;;;;;;;;4978317;28;20831;-75
2023/02/13 03:37:53;;;;;;;14.67;12.10;;;;;;;;;;4976022;28;20440;-75
2023/02/13 03:40:04;;;;;;;15.63;13.67;;;;;;;;;;4984420;28;20828;-74
2023/02/13 03:42:47;;;;;;;15.70;13.53;;;;;;;;;;4995462;28;20805;-74
2023/02/13 03:50:04;;;;;;;14.87;13.27;;;;;;;;;;4985776;28;20420;-75
2023/02/13 03:50:54;;;;;;;14.20;12.80;;;;;;;;;;4990161;28;20416;-75
2023/02/13 03:53:19;;;;;;;14.33;12.70;;;;;;;;;;4987949;28;20413;-75
2023/02/13 04:01:20;;;;;;;14.10;12.60;;;;;;;;;;4991222;28;20435;-75
2023/02/13 04:03:45;;;;;;;15.80;13.63;;;;;;;;;;4988067;28;20533;-75
2023/02/13 04:06:14;;;;;;;14.73;12.70;;;;;;;;;;4987158;28;20531;-75
2023/02/13 04:08:40;;;;;;;14.90;13.30;;;;;;;;;;4986556;28;20179;-74
2023/02/13 04:11:08;;;;;;;16.27;13.50;;;;;;;;;;4982558;28;20451;-75
2023/02/13 04:13:35;;;;;;;16.30;13.10;;;;;;;;;;4988581;28;20185;-75
2023/02/13 04:16:03;;;;;;;17.20;13.87;;;;;;;;;;4978297;28;20522;-75
2023/02/13 04:18:30;;;;;;;14.50;12.93;;;;;;;;;;4981524;28;20875;-75
2023/02/13 04:20:55;;;;;;;16.53;13.77;;;;;;;;;;4982598;28;20463;-75
2023/02/13 04:23:20;;;;;;;15.30;12.90;;;;;;;;;;4999230;28;21146;-75
2023/02/13 04:25:49;;;;;;;14.53;13.03;;;;;;;;;;4988053;28;20626;-75
2023/02/13 04:28:14;;;;;;;16.60;13.60;;;;;;;;;;4982332;28;20186;-75
2023/02/13 04:30:39;;;;;;;15.70;13.03;;;;;;;;;;4984546;28;20946;-75
2023/02/13 04:33:05;;;;;;;15.47;13.57;;;;;;;;;;4984706;28;20190;-75
2023/02/13 04:35:30;;;;;;;15.20;13.30;;;;;;;;;;4982098;28;20182;-75
2023/02/13 04:37:55;;;;;;;17.30;13.50;;;;;;;;;;4983835;28;20650;-75
2023/02/13 04:40:21;;;;;;;15.03;12.90;;;;;;;;;;4985307;28;20202;-75
2023/02/13 04:42:47;;;;;;;15.80;14.10;;;;;;;;;;4982479;28;20584;-75
2023/02/13 04:45:13;;;;;;;16.80;14.20;;;;;;;;;;4985902;28;20276;-74
2023/02/13 04:47:38;;;;;;;16.10;13.77;;;;;;;;;;4984694;28;21002;-75
2023/02/13 04:50:03;;;;;;;18.60;14.80;;;;;;;;;;4986973;28;20209;-75
2023/02/13 04:52:29;;;;;;;15.10;13.20;;;;;;;;;;4980712;28;20565;-74
2023/02/13 04:54:54;;;;;;;17.53;13.30;;;;;;;;;;4984989;28;20186;-75
2023/02/13 04:57:19;;;;;;;15.80;13.57;;;;;;;;;;4982818;28;20197;-75
2023/02/13 04:59:44;;;;;;;16.77;13.80;;;;;;;;;;4976600;28;20272;-75
2023/02/13 05:02:10;;;;;;;17.40;13.53;;;;;;;;;;4984553;28;20185;-75
2023/02/13 05:04:35;;;;;;;15.40;13.23;;;;;;;;;;4984707;28;20202;-75
2023/02/13 05:07:00;;;;;;;16.37;13.20;;;;;;;;;;4981829;28;20324;-75
2023/02/13 05:09:25;;;;;;;15.50;13.90;;;;;;;;;;4983761;28;20205;-74
2023/02/13 05:11:51;;;;;;;15.90;13.63;;;;;;;;;;4983881;28;20967;-74
2023/02/13 05:14:17;;;;;;;18.07;14.20;;;;;;;;;;4987919;28;20647;-75
2023/02/13 05:16:45;;;;;;;15.70;13.70;;;;;;;;;;4977512;28;20437;-75
2023/02/13 05:19:10;;;;;;;16.33;13.50;;;;;;;;;;4982673;28;20214;-75
2023/02/13 05:24:19;;;;;;;17.30;14.77;;;;;;;;;;4984192;28;20185;-75
2023/02/13 05:26:44;;;;;;;17.00;14.50;;;;;;;;;;4989444;28;20417;-75
2023/02/13 05:29:19;;;;;;;18.60;15.07;;;;;;;;;;4985816;28;20190;-74
2023/02/13 05:31:48;;;;;;;16.37;13.60;;;;;;;;;;4988778;28;20268;-74
2023/02/13 05:34:14;;;;;;;20.00;13.90;;;;;;;;;;4988139;28;20523;-74
2023/02/13 05:36:39;;;;;;;15.00;12.60;;;;;;;;;;4986052;28;20962;-74
2023/02/13 05:39:05;;;;;;;17.73;14.37;;;;;;;;;;4985006;28;20264;-75
2023/02/13 05:41:30;;;;;;;16.57;13.00;;;;;;;;;;4987747;28;20185;-75
2023/02/13 05:43:55;;;;;;;16.33;13.57;;;;;;;;;;4990000;28;20244;-75
2023/02/13 05:46:21;;;;;;;16.00;12.83;;;;;;;;;;4989808;28;20265;-75
2023/02/13 05:48:46;;;;;;;17.23;13.70;;;;;;;;;;4985614;28;20213;-75
2023/02/13 05:51:11;;;;;;;16.83;13.60;;;;;;;;;;4988754;28;20193;-75
2023/02/13 05:53:37;;;;;;;16.87;14.00;;;;;;;;;;4987027;28;20193;-75
2023/02/13 05:56:03;;;;;;;17.53;14.03;;;;;;;;;;4985624;28;20249;-75
2023/02/13 05:58:29;;;;;;;14.67;12.67;;;;;;;;;;4986587;28;20194;-75
2023/02/13 06:00:55;;;;;;;18.57;14.40;;;;;;;;;;4987395;28;20770;-75
2023/02/13 06:03:21;;;;;;;15.67;12.80;;;;;;;;;;4988441;28;20269;-75
2023/02/13 06:05:46;;;;;;;17.13;12.97;;;;;;;;;;4987900;28;20489;-75
2023/02/13 06:08:11;;;;;;;16.70;13.80;;;;;;;;;;4987262;28;20190;-75
2023/02/13 06:10:37;;;;;;;15.07;12.60;;;;;;;;;;4988686;28;20210;-75
2023/02/13 06:13:02;;;;;;;16.93;13.90;;;;;;;;;;4984501;28;20185;-74
2023/02/13 06:15:27;;;;;;;16.67;14.03;;;;;;;;;;4989172;28;20533;-75
2023/02/13 06:17:53;;;;;;;16.23;13.50;;;;;;;;;;4986255;28;20665;-75
2023/02/13 06:20:18;;;;;;;16.10;13.53;;;;;;;;;;4985405;28;20252;-75
2023/02/13 06:22:46;;;;;;;15.33;13.57;;;;;;;;;;4984364;28;20281;-75
2023/02/13 06:25:12;;;;;;;20.60;13.97;;;;;;;;;;4985988;28;20744;-75
2023/02/13 06:27:37;;;;;;;16.30;13.90;;;;;;;;;;4986407;28;20544;-75
2023/02/13 06:30:03;;;;;;;18.60;14.17;;;;;;;;;;4986257;28;20531;-75
2023/02/13 06:32:28;;;;;;;18.53;14.67;;;;;;;;;;4986538;28;20182;-75
2023/02/13 06:34:53;;;;;;;16.33;14.13;;;;;;;;;;4988806;28;20213;-74
2023/02/13 06:37:18;;;;;;;16.73;14.13;;;;;;;;;;4985437;28;20643;-74
2023/02/13 06:39:44;;;;;;;17.03;13.70;;;;;;;;;;4984853;28;20213;-74
2023/02/13 06:42:09;;;;;;;17.63;14.53;;;;;;;;;;4987995;28;20185;-74
2023/02/13 06:44:34;;;;;;;17.33;15.00;;;;;;;;;;4985047;28;20189;-75
2023/02/13 06:47:00;;;;;;;16.53;14.23;;;;;;;;;;4989112;28;20649;-74
2023/02/13 06:49:25;;;;;;;16.60;14.37;;;;;;;;;;4985003;28;20738;-75
2023/02/13 06:51:51;;;;;;;16.77;14.87;;;;;;;;;;4988024;28;20232;-75
2023/02/13 06:54:17;;;;;;;16.27;13.23;;;;;;;;;;4987866;28;20902;-74
2023/02/13 06:56:42;;;;;;;17.33;13.70;;;;;;;;;;4988124;28;20196;-75
2023/02/13 06:59:07;;;;;;;18.07;14.57;;;;;;;;;;4985464;28;20285;-74
2023/02/13 07:01:33;;;;;;;16.27;13.90;;;;;;;;;;4981933;28;20655;-75
2023/02/13 07:03:58;;;;;;;16.77;14.40;;;;;;;;;;4984823;28;20170;-75
2023/02/13 07:06:23;;;;;;;17.63;14.60;;;;;;;;;;4990755;28;20182;-74
2023/02/13 07:08:54;;;;;;;17.43;14.90;;;;;;;;;;4983958;28;20212;-73
2023/02/13 07:11:20;;;;;;;20.67;14.53;;;;;;;;;;4984464;28;20602;-74
2023/02/13 07:13:45;;;;;;;18.43;15.03;;;;;;;;;;4985081;28;20560;-74
2023/02/13 07:16:10;;;;;;;17.80;14.47;;;;;;;;;;4983831;28;20418;-73
2023/02/13 07:18:36;;;;;;;20.27;15.30;;;;;;;;;;4985902;28;20295;-74
2023/02/13 07:21:01;;;;;;;19.43;14.67;;;;;;;;;;4983988;28;20265;-75
2023/02/13 07:23:26;;;;;;;16.83;13.97;;;;;;;;;;4986642;28;20722;-74
2023/02/13 07:25:52;;;;;;;18.30;15.10;;;;;;;;;;4989359;28;20492;-74
2023/02/13 07:28:17;;;;;;;22.20;16.20;;;;;;;;;;4986147;28;20181;-74
2023/02/13 07:30:42;;;;;;;19.90;15.53;;;;;;;;;;4987332;28;20211;-75
2023/02/13 07:33:08;;;;;;;20.80;17.07;;;;;;;;;;4989017;28;20332;-74
2023/02/13 07:35:35;;;;;;;18.00;15.20;;;;;;;;;;4988539;28;20189;-75
2023/02/13 07:38:00;;;;;;;20.77;16.90;;;;;;;;;;4987564;28;20941;-74
2023/02/13 07:40:25;;;;;;;19.00;16.63;;;;;;;;;;4987634;28;20457;-74
2023/02/13 07:42:51;;;;;;;17.87;14.87;;;;;;;;;;4988069;28;20181;-74
2023/02/13 07:45:16;;;;;;;17.63;14.50;;;;;;;;;;4985730;28;20213;-74
2023/02/13 07:47:41;;;;;;;19.40;16.07;;;;;;;;;;4987245;28;20256;-74
2023/02/13 07:50:07;;;;;;;19.17;15.17;;;;;;;;;;4990683;28;20554;-74
2023/02/13 07:52:33;;;;;;;18.07;15.10;;;;;;;;;;4988192;28;20178;-74
2023/02/13 07:54:58;;;;;;;17.37;14.70;;;;;;;;;;4987982;28;20444;-75
2023/02/13 07:57:23;;;;;;;17.70;15.03;;;;;;;;;;4988007;28;20186;-74
2023/02/13 07:59:48;;;;;;;18.67;14.50;;;;;;;;;;4983891;28;20264;-74
2023/02/13 08:02:14;;;;;;;17.80;15.00;;;;;;;;;;4984532;28;20224;-74
2023/02/13 08:04:39;;;;;;;19.33;14.70;;;;;;;;;;4986671;28;20234;-75
2023/02/13 08:07:05;;;;;;;16.97;15.17;;;;;;;;;;4986493;28;20178;-75
2023/02/13 08:12:14;;;;;;;19.00;15.30;;;;;;;;;;4988694;28;20197;-74
2023/02/13 08:14:40;;;;;;;18.60;14.87;;;;;;;;;;4986893;28;20401;-75
2023/02/13 08:17:05;;;;;;;24.60;17.63;;;;;;;;;;4987341;28;20182;-74
2023/02/13 08:19:30;;;;;;;20.20;15.67;;;;;;;;;;4987067;28;20201;-75
2023/02/13 08:21:56;;;;;;;20.43;15.47;;;;;;;;;;4987633;28;20166;-74
2023/02/13 08:24:22;;;;;;;22.07;16.20;;;;;;;;;;4986617;28;20198;-75
2023/02/13 08:26:47;;;;;;;16.17;13.60;;;;;;;;;;4988331;28;20166;-74
2023/02/13 08:29:13;;;;;;;18.23;14.80;;;;;;;;;;4985609;28;20447;-74
2023/02/13 08:31:38;;;;;;;17.00;15.00;;;;;;;;;;4986630;28;20260;-74
2023/02/13 08:34:03;;;;;;;16.97;13.80;;;;;;;;;;4986902;28;20646;-74
2023/02/13 08:36:29;;;;;;;16.10;13.30;;;;;;;;;;4989231;28;20205;-75
2023/02/13 08:38:55;;;;;;;17.80;14.10;;;;;;;;;;4990326;28;20213;-74
2023/02/13 08:41:21;;;;;;;17.27;14.63;;;;;;;;;;4990349;28;20265;-74
2023/02/13 08:43:46;;;;;;;18.20;14.00;;;;;;;;;;4987909;28;20186;-74
2023/02/13 08:46:12;;;;;;;18.20;14.10;;;;;;;;;;4991130;28;20444;-74
2023/02/13 08:48:37;;;;;;;17.27;13.80;;;;;;;;;;4989779;28;20630;-75
2023/02/13 08:51:06;;;;;;;17.13;14.63;;;;;;;;;;4990903;28;20233;-74
2023/02/13 08:53:32;;;;;;;17.30;14.40;;;;;;;;;;4990475;28;20449;-75
2023/02/13 08:55:57;;;;;;;16.37;13.60;;;;;;;;;;4990365;28;20424;-75
2023/02/13 08:58:22;;;;;;;16.50;13.60;;;;;;;;;;4990323;28;20198;-75
2023/02/13 09:00:48;;;;;;;16.97;14.40;;;;;;;;;;4990399;28;20745;-75
2023/02/13 09:03:13;;;;;;;16.93;13.13;;;;;;;;;;4990082;28;20635;-75
2023/02/13 09:05:38;;;;;;;18.07;14.83;;;;;;;;;;4988330;28;20752;-74
2023/02/13 09:08:04;;;;;;;15.60;13.83;;;;;;;;;;4989440;28;20178;-75
2023/02/13 09:10:30;;;;;;;16.20;14.10;;;;;;;;;;4990026;28;20198;-75
2023/02/13 09:12:55;;;;;;;17.10;13.90;;;;;;;;;;4989318;28;20196;-75
2023/02/13 09:15:21;;;;;;;16.23;14.50;;;;;;;;;;4990941;28;20405;-75
2023/02/13 09:17:46;;;;;;;20.37;14.40;;;;;;;;;;4988120;28;20264;-75
2023/02/13 09:20:12;;;;;;;19.27;14.87;;;;;;;;;;4984626;28;20613;-75
2023/02/13 09:22:38;;;;;;;21.00;15.40;;;;;;;;;;4986381;28;20215;-74
2023/02/13 09:25:04;;;;;;;21.80;15.30;;;;;;;;;;4990258;28;20420;-75
2023/02/13 09:27:29;;;;;;;17.60;14.23;;;;;;;;;;4988770;28;20166;-74
2023/02/13 09:29:54;;;;;;;19.63;15.17;;;;;;;;;;4988770;28;20237;-75
2023/02/13 09:32:20;;;;;;;17.70;15.03;;;;;;;;;;4989950;28;20188;-74
2023/02/13 09:34:45;;;;;;;81.97;23.10;;;;;;;;;;4989554;28;20266;-75
2023/02/13 09:37:10;;;;;;;234.53;48.20;;;;;;;;;;4986673;28;20189;-74
2023/02/13 09:39:36;;;;;;;62.90;22.30;;;;;;;;;;4991548;28;20232;-75
2023/02/13 09:42:02;;;;;;;30.03;17.10;;;;;;;;;;4987122;28;20166;-75
2023/02/13 09:44:42;;;;;;;19.27;14.43;;;;;;;;;;4987706;28;20963;-75
2023/02/13 09:47:27;;;;;;;18.97;14.20;;;;;;;;;;4987592;28;20782;-75
2023/02/13 09:49:54;;;;;;;18.73;15.80;;;;;;;;;;4997729;28;20443;-74
2023/02/13 09:52:20;;;;;;;22.00;15.27;;;;;;;;;;4988899;28;20510;-75
2023/02/13 09:54:45;;;;;;;18.27;14.57;;;;;;;;;;4988426;28;20957;-75
2023/02/13 09:57:19;;;;;;;14.60;12.23;;;;;;;;;;4989717;28;20170;-75
2023/02/13 09:59:47;;;;;;;16.47;12.90;;;;;;;;;;4987297;28;20202;-75
2023/02/13 10:02:12;;;;;;;25.37;15.73;;;;;;;;;;4989003;28;20478;-75
2023/02/13 10:04:48;;;;;;;17.93;14.50;;;;;;;;;;4988899;28;21004;-75
2023/02/13 10:07:34;;;;;;;18.70;13.00;;;;;;;;;;4988936;28;20178;-75
2023/02/13 10:10:01;;;;;;;16.90;12.67;;;;;;;;;;4989874;28;21059;-74
2023/02/13 10:12:26;;;;;;;16.93;13.03;;;;;;;;;;4989564;28;20429;-74
2023/02/13 10:14:55;;;;;;;15.80;11.93;;;;;;;;;;4987675;28;20412;-74
2023/02/13 10:17:33;;;;;;;16.33;13.90;;;;;;;;;;4988610;28;20189;-74
2023/02/13 10:20:01;;;;;;;16.00;12.50;;;;;;;;;;4988425;28;20504;-74
2023/02/13 10:22:43;;;;;;;17.90;13.57;;;;;;;;;;5004016;28;20521;-74
2023/02/13 10:25:15;;;;;;;15.87;13.17;;;;;;;;;;4988581;28;20504;-74
2023/02/13 10:27:45;;;;;;;17.23;13.23;;;;;;;;;;4987823;28;20437;-74
2023/02/13 10:30:13;;;;;;;15.23;13.07;;;;;;;;;;4985472;28;20453;-74
2023/02/13 10:35:44;;;;;;;14.63;12.03;;;;;;;;;;4989834;28;21100;-74
2023/02/13 10:38:14;;;;;;;15.80;12.70;;;;;;;;;;4986597;28;20417;-74
2023/02/13 10:40:44;;;;;;;18.73;14.07;;;;;;;;;;4988753;28;20974;-74
2023/02/13 10:43:15;;;;;;;21.07;15.37;;;;;;;;;;4988585;28;20447;-74
2023/02/13 10:46:00;;;;;;;25.07;13.63;;;;;;;;;;4990255;28;20489;-75
2023/02/13 10:48:25;;;;;;;16.23;12.43;;;;;;;;;;4966239;28;20492;-74
2023/02/13 10:51:08;;;;;;;19.47;13.40;;;;;;;;;;4988873;28;20503;-74
2023/02/13 10:53:49;;;;;;;15.63;12.87;;;;;;;;;;4988250;28;20210;-74
2023/02/13 10:56:34;;;;;;;16.10;12.47;;;;;;;;;;4984649;28;20456;-74
2023/02/13 10:59:05;;;;;;;15.17;12.50;;;;;;;;;;4987626;28;20472;-74
2023/02/13 11:01:30;;;;;;;15.10;12.00;;;;;;;;;;4986534;28;20500;-74
2023/02/13 11:04:02;;;;;;;15.70;12.80;;;;;;;;;;4987571;28;21001;-74
2023/02/13 11:06:29;;;;;;;16.27;13.00;;;;;;;;;;4989395;28;20256;-75
2023/02/13 11:08:54;;;;;;;15.47;13.10;;;;;;;;;;4986716;28;20476;-74
2023/02/13 11:11:33;;;;;;;16.27;13.70;;;;;;;;;;4987191;28;20512;-74
2023/02/13 11:14:12;;;;;;;18.40;12.70;;;;;;;;;;4987102;28;20240;-74
2023/02/13 11:16:39;;;;;;;20.17;15.00;;;;;;;;;;4986949;28;20405;-75
2023/02/13 11:19:04;;;;;;;20.03;12.70;;;;;;;;;;4985711;28;20477;-74
2023/02/13 11:21:34;;;;;;;16.90;12.27;;;;;;;;;;4987737;28;20428;-75
2023/02/13 11:24:00;;;;;;;15.53;12.70;;;;;;;;;;4981009;28;20185;-74
2023/02/13 11:26:34;;;;;;;15.13;12.87;;;;;;;;;;4986894;28;20414;-74
2023/02/13 11:29:02;;;;;;;17.33;13.10;;;;;;;;;;4985260;28;20201;-74
2023/02/13 11:31:32;;;;;;;18.77;13.00;;;;;;;;;;4987380;28;20814;-74
2023/02/13 11:33:58;;;;;;;15.80;13.17;;;;;;;;;;4983867;28;20437;-74
2023/02/13 11:36:24;;;;;;;16.50;12.77;;;;;;;;;;4996528;28;20426;-74
2023/02/13 11:38:58;;;;;;;19.97;12.90;;;;;;;;;;4982939;28;20518;-74
2023/02/13 11:41:24;;;;;;;14.97;13.17;;;;;;;;;;4981778;28;20199;-74
2023/02/13 11:43:52;;;;;;;18.13;13.00;;;;;;;;;;4992575;28;20484;-74
2023/02/13 11:46:21;;;;;;;17.10;13.80;;;;;;;;;;4983336;28;20490;-74
2023/02/13 11:48:59;;;;;;;14.10;11.10;;;;;;;;;;4984610;28;20460;-74
2023/02/13 11:51:34;;;;;;;16.03;13.50;;;;;;;;;;4985655;28;20944;-74
2023/02/13 11:54:00;;;;;;;15.80;12.40;;;;;;;;;;4986855;28;20776;-74
2023/02/13 11:56:25;;;;;;;17.93;13.60;;;;;;;;;;4986085;28;20964;-74
2023/02/13 11:58:59;;;;;;;16.87;13.90;;;;;;;;;;4984389;28;20552;-74
2023/02/13 12:01:27;;;;;;;17.90;13.93;;;;;;;;;;4981811;28;20264;-74
2023/02/13 12:04:16;;;;;;;15.50;13.33;;;;;;;;;;4986164;28;20433;-74
2023/02/13 12:06:56;;;;;;;19.10;15.03;;;;;;;;;;4977141;28;20460;-74
2023/02/13 12:09:21;;;;;;;17.27;14.40;;;;;;;;;;4986928;28;20812;-75
2023/02/13 12:11:57;;;;;;;17.90;13.17;;;;;;;;;;4990249;28;20405;-74
2023/02/13 12:14:27;;;;;;;17.70;13.90;;;;;;;;;;5003449;28;20181;-74
2023/02/13 12:17:13;;;;;;;16.57;13.23;;;;;;;;;;4991355;28;20524;-74
2023/02/13 12:19:38;;;;;;;16.50;13.43;;;;;;;;;;4986619;28;21111;-74
2023/02/13 12:22:08;;;;;;;19.30;13.90;;;;;;;;;;4989605;28;20447;-74
2023/02/13 12:24:43;;;;;;;19.20;15.10;;;;;;;;;;4988949;28;20257;-74
2023/02/13 12:27:27;;;;;;;17.10;12.70;;;;;;;;;;4987743;28;20404;-74
2023/02/13 12:29:52;;;;;;;19.40;14.80;;;;;;;;;;4989184;28;21412;-74
2023/02/13 12:32:17;;;;;;;18.20;14.53;;;;;;;;;;4985181;28;20436;-74
2023/02/13 12:34:45;;;;;;;17.90;14.50;;;;;;;;;;4987014;28;20269;-74
2023/02/13 12:37:16;;;;;;;19.17;14.10;;;;;;;;;;4988657;28;20556;-74
2023/02/13 12:39:50;;;;;;;16.80;13.30;;;;;;;;;;4989809;28;20472;-74
2023/02/13 12:42:25;;;;;;;16.60;13.93;;;;;;;;;;4985794;28;20421;-74
2023/02/13 12:47:25;;;;;;;16.30;12.50;;;;;;;;;;4977295;28;20551;-69
2023/02/13 12:50:06;;;;;;;16.47;13.73;;;;;;;;;;4987745;28;20806;-69
2023/02/13 12:52:49;;;;;;;16.03;14.07;;;;;;;;;;4987358;28;20807;-69
2023/02/13 12:55:38;;;;;;;15.03;12.57;;;;;;;;;;4989919;28;20457;-69
2023/02/13 12:58:03;;;;;;;18.67;15.10;;;;;;;;;;4961675;28;20429;-69
2023/02/13 13:00:34;;;;;;;19.93;14.57;;;;;;;;;;4989079;28;20507;-69
2023/02/13 13:03:08;;;;;;;19.30;15.17;;;;;;;;;;4990435;28;20292;-69
2023/02/13 13:05:37;;;;;;;17.40;13.30;;;;;;;;;;4989467;28;20448;-69
2023/02/13 13:08:38;;;;;;;18.87;14.20;;;;;;;;;;4989252;28;20479;-69
2023/02/13 13:11:09;;;;;;;19.33;14.90;;;;;;;;;;4931811;29;20431;-69
2023/02/13 13:13:46;;;;;;;19.43;15.40;;;;;;;;;;4980044;28;20457;-69
2023/02/13 13:16:11;;;;;;;18.57;15.20;;;;;;;;;;4989208;28;20983;-69
2023/02/13 13:18:39;;;;;;;23.70;16.00;;;;;;;;;;4989841;28;20544;-69
2023/02/13 13:21:10;;;;;;;21.70;16.90;;;;;;;;;;4988531;28;20181;-69
2023/02/13 13:23:56;;;;;;;20.63;16.20;;;;;;;;;;4991138;28;20833;-69
2023/02/13 13:26:30;;;;;;;20.20;16.10;;;;;;;;;;4990385;28;20428;-69
2023/02/13 13:28:58;;;;;;;18.20;14.33;;;;;;;;;;4989467;28;20417;-69
2023/02/13 13:31:25;;;;;;;18.60;14.90;;;;;;;;;;4989088;28;20417;-69
2023/02/13 13:33:50;;;;;;;18.23;14.90;;;;;;;;;;4990814;28;20409;-69
2023/02/13 13:36:33;;;;;;;21.10;15.93;;;;;;;;;;4989919;28;20941;-69
2023/02/13 13:39:04;;;;;;;19.93;14.90;;;;;;;;;;4989953;28;20293;-70
2023/02/13 13:41:34;;;;;;;19.30;15.03;;;;;;;;;;4989811;28;20408;-69
2023/02/13 13:44:08;;;;;;;18.60;15.43;;;;;;;;;;4989902;28;20412;-69
2023/02/13 13:46:46;;;;;;;20.83;16.50;;;;;;;;;;4987971;28;20527;-69
2023/02/13 13:49:20;;;;;;;21.57;16.43;;;;;;;;;;4987772;28;20428;-69
2023/02/13 13:51:45;;;;;;;21.57;17.10;;;;;;;;;;4987904;28;20643;-69
2023/02/13 13:54:11;;;;;;;17.93;15.17;;;;;;;;;;4987978;28;20429;-70
2023/02/13 13:56:51;;;;;;;24.00;16.70;;;;;;;;;;4988743;28;20206;-69
2023/02/13 13:59:17;;;;;;;20.83;16.73;;;;;;;;;;4979812;28;20239;-70
2023/02/13 14:01:42;;;;;;;22.30;18.23;;;;;;;;;;4984788;28;20569;-70
2023/02/13 14:04:26;;;;;;;24.03;18.60;;;;;;;;;;4986482;28;20429;-70
2023/02/13 14:06:58;;;;;;;19.73;16.07;;;;;;;;;;4989666;28;20252;-70
2023/02/13 14:09:23;;;;;;;23.10;17.00;;;;;;;;;;4985787;28;20444;-70
2023/02/13 14:11:48;;;;;;;20.20;16.00;;;;;;;;;;4988139;28;20974;-69
2023/02/13 14:14:26;;;;;;;21.90;17.00;;;;;;;;;;4986777;28;20213;-69
2023/02/13 14:16:51;;;;;;;21.20;17.43;;;;;;;;;;4986559;28;20678;-70
2023/02/13 14:19:46;;;;;;;20.37;16.00;;;;;;;;;;4988134;28;20465;-70
2023/02/13 14:22:23;;;;;;;19.67;16.30;;;;;;;;;;4967669;28;20280;-69
2023/02/13 14:24:56;;;;;;;21.03;16.33;;;;;;;;;;4989951;28;20409;-69
2023/02/13 14:27:22;;;;;;;19.10;16.30;;;;;;;;;;4988634;28;20453;-70
2023/02/13 14:29:48;;;;;;;18.87;15.70;;;;;;;;;;4986475;28;20760;-69
2023/02/13 14:32:15;;;;;;;23.33;16.47;;;;;;;;;;4983541;28;20484;-69
2023/02/13 14:34:41;;;;;;;18.60;14.90;;;;;;;;;;4988704;28;20184;-70
2023/02/13 14:37:09;;;;;;;19.67;16.40;;;;;;;;;;4988529;28;20441;-70
2023/02/13 14:39:35;;;;;;;19.37;15.20;;;;;;;;;;4987787;28;20205;-70
2023/02/13 14:42:01;;;;;;;17.60;14.27;;;;;;;;;;4989822;28;20703;-70
2023/02/13 14:44:49;;;;;;;18.43;14.70;;;;;;;;;;4979397;28;20782;-69
2023/02/13 14:47:34;;;;;;;21.97;15.90;;;;;;;;;;4975397;28;20497;-70
2023/02/13 14:50:00;;;;;;;19.50;14.87;;;;;;;;;;4987449;28;20420;-69
2023/02/13 14:52:28;;;;;;;19.83;15.47;;;;;;;;;;4988005;28;20417;-70
2023/02/13 14:55:04;;;;;;;18.00;14.97;;;;;;;;;;4987936;28;20432;-70
2023/02/13 14:57:52;;;;;;;16.90;13.20;;;;;;;;;;4989125;28;20924;-70
2023/02/13 15:00:30;;;;;;;21.40;16.77;;;;;;;;;;4980927;28;20969;-69
2023/02/13 15:02:58;;;;;;;23.07;16.07;;;;;;;;;;4988948;28;20417;-69
2023/02/13 15:05:25;;;;;;;20.10;15.70;;;;;;;;;;4986832;28;20523;-69
2023/02/13 15:07:54;;;;;;;21.20;16.10;;;;;;;;;;4988801;28;20923;-69
2023/02/13 15:10:19;;;;;;;18.43;15.30;;;;;;;;;;4987808;28;20941;-69
2023/02/13 15:12:45;;;;;;;19.67;15.20;;;;;;;;;;4986738;28;20467;-70
2023/02/13 15:15:26;;;;;;;20.10;14.80;;;;;;;;;;4986973;28;20198;-69
2023/02/13 15:17:54;;;;;;;17.70;14.80;;;;;;;;;;4988112;28;20272;-70